sensor_id;sensor_type;location;lat;lon;timestamp;P1;durP1;ratioP1;P2;durP2;ratioP2
7116;SDS011;3600;48.568;7.870;2024-02-26T00:01:51;1.50;;;1.40;;
7116;SDS011;3600;48.568;7.870;2024-02-26T00:04:18;1.80;;;1.27;;
7116;SDS011;3600;48.568;7.870;2024-02-26T00:06:46;1.98;;;1.48;;
7116;SDS011;3600;48.568;7.870;2024-02-26T00:09:14;2.10;;;1.90;;
7116;SDS011;3600;48.568;7.870;2024-02-26T00:11:41;1.58;;;1.48;;
7116;SDS011;3600;48.568;7.870;2024-02-26T00:14:08;1.45;;;1.33;;
7116;SDS011;3600;48.568;7.870;2024-02-26T00:16:41;3.05;;;1.10;;
7116;SDS011;3600;48.568;7.870;2024-02-26T00:19:08;2.25;;;1.70;;
7116;SDS011;3600;48.568;7.870;2024-02-26T00:21:39;1.33;;;1.23;;
7116;SDS011;3600;48.568;7.870;2024-02-26T00:24:08;2.50;;;1.35;;
7116;SDS011;3600;48.568;7.870;2024-02-26T00:26:35;1.35;;;1.27;;
7116;SDS011;3600;48.568;7.870;2024-02-26T00:29:02;1.30;;;1.17;;
7116;SDS011;3600;48.568;7.870;2024-02-26T00:31:29;0.88;;;0.88;;
7116;SDS011;3600;48.568;7.870;2024-02-26T00:33:56;1.10;;;1.00;;
7116;SDS011;3600;48.568;7.870;2024-02-26T00:36:23;0.77;;;0.77;;
7116;SDS011;3600;48.568;7.870;2024-02-26T00:38:50;2.70;;;1.27;;
7116;SDS011;3600;48.568;7.870;2024-02-26T00:41:17;1.98;;;1.30;;
7116;SDS011;3600;48.568;7.870;2024-02-26T00:43:45;2.25;;;1.08;;
7116;SDS011;3600;48.568;7.870;2024-02-26T00:46:13;1.23;;;1.17;;
7116;SDS011;3600;48.568;7.870;2024-02-26T00:48:40;0.97;;;0.83;;
7116;SDS011;3600;48.568;7.870;2024-02-26T00:51:07;1.30;;;1.20;;
7116;SDS011;3600;48.568;7.870;2024-02-26T00:53:35;1.10;;;0.70;;
7116;SDS011;3600;48.568;7.870;2024-02-26T00:56:02;0.80;;;0.70;;
7116;SDS011;3600;48.568;7.870;2024-02-26T00:58:29;1.05;;;0.93;;
7116;SDS011;3600;48.568;7.870;2024-02-26T01:00:56;1.23;;;1.10;;
7116;SDS011;3600;48.568;7.870;2024-02-26T01:03:23;1.55;;;1.20;;
7116;SDS011;3600;48.568;7.870;2024-02-26T01:05:50;2.03;;;1.20;;
7116;SDS011;3600;48.568;7.870;2024-02-26T01:08:22;1.55;;;1.13;;
7116;SDS011;3600;48.568;7.870;2024-02-26T01:10:49;2.20;;;1.48;;
7116;SDS011;3600;48.568;7.870;2024-02-26T01:13:18;1.88;;;1.30;;
7116;SDS011;3600;48.568;7.870;2024-02-26T01:15:45;1.98;;;1.63;;
7116;SDS011;3600;48.568;7.870;2024-02-26T01:18:12;2.97;;;1.50;;
7116;SDS011;3600;48.568;7.870;2024-02-26T01:20:40;1.83;;;1.10;;
7116;SDS011;3600;48.568;7.870;2024-02-26T01:23:07;1.60;;;1.35;;
7116;SDS011;3600;48.568;7.870;2024-02-26T01:25:34;0.98;;;0.93;;
7116;SDS011;3600;48.568;7.870;2024-02-26T01:28:01;1.43;;;1.33;;
7116;SDS011;3600;48.568;7.870;2024-02-26T01:30:29;1.87;;;1.53;;
7116;SDS011;3600;48.568;7.870;2024-02-26T01:32:56;1.80;;;1.65;;
7116;SDS011;3600;48.568;7.870;2024-02-26T01:35:23;1.50;;;1.10;;
7116;SDS011;3600;48.568;7.870;2024-02-26T01:37:50;1.40;;;1.20;;
7116;SDS011;3600;48.568;7.870;2024-02-26T01:40:17;1.07;;;0.80;;
7116;SDS011;3600;48.568;7.870;2024-02-26T01:42:46;0.90;;;0.80;;
7116;SDS011;3600;48.568;7.870;2024-02-26T01:45:16;1.05;;;0.98;;
7116;SDS011;3600;48.568;7.870;2024-02-26T01:47:53;1.08;;;0.90;;
7116;SDS011;3600;48.568;7.870;2024-02-26T01:50:21;0.60;;;0.60;;
7116;SDS011;3600;48.568;7.870;2024-02-26T01:52:49;0.80;;;0.70;;
7116;SDS011;3600;48.568;7.870;2024-02-26T01:55:17;1.63;;;0.83;;
7116;SDS011;3600;48.568;7.870;2024-02-26T01:57:47;1.17;;;0.60;;
7116;SDS011;3600;48.568;7.870;2024-02-26T02:00:18;0.80;;;0.80;;
7116;SDS011;3600;48.568;7.870;2024-02-26T02:02:47;1.00;;;0.90;;
7116;SDS011;3600;48.568;7.870;2024-02-26T02:05:17;0.97;;;0.87;;
7116;SDS011;3600;48.568;7.870;2024-02-26T02:07:46;1.57;;;0.80;;
7116;SDS011;3600;48.568;7.870;2024-02-26T02:10:15;0.70;;;0.70;;
7116;SDS011;3600;48.568;7.870;2024-02-26T02:12:45;0.70;;;0.70;;
7116;SDS011;3600;48.568;7.870;2024-02-26T02:15:12;1.33;;;0.60;;
7116;SDS011;3600;48.568;7.870;2024-02-26T02:17:39;0.97;;;0.70;;
7116;SDS011;3600;48.568;7.870;2024-02-26T02:20:10;0.80;;;0.80;;
7116;SDS011;3600;48.568;7.870;2024-02-26T02:22:46;0.77;;;0.70;;
7116;SDS011;3600;48.568;7.870;2024-02-26T02:25:14;0.70;;;0.70;;
7116;SDS011;3600;48.568;7.870;2024-02-26T02:27:41;0.63;;;0.53;;
7116;SDS011;3600;48.568;7.870;2024-02-26T02:30:09;0.50;;;0.50;;
7116;SDS011;3600;48.568;7.870;2024-02-26T02:32:38;1.17;;;0.60;;
7116;SDS011;3600;48.568;7.870;2024-02-26T02:35:10;1.40;;;0.70;;
7116;SDS011;3600;48.568;7.870;2024-02-26T02:37:37;1.37;;;0.70;;
7116;SDS011;3600;48.568;7.870;2024-02-26T02:40:04;0.60;;;0.60;;
7116;SDS011;3600;48.568;7.870;2024-02-26T02:42:33;1.10;;;0.73;;
7116;SDS011;3600;48.568;7.870;2024-02-26T02:45:00;0.97;;;0.73;;
7116;SDS011;3600;48.568;7.870;2024-02-26T02:47:27;0.53;;;0.50;;
7116;SDS011;3600;48.568;7.870;2024-02-26T02:49:54;0.50;;;0.50;;
7116;SDS011;3600;48.568;7.870;2024-02-26T02:52:21;0.70;;;0.50;;
7116;SDS011;3600;48.568;7.870;2024-02-26T02:54:49;0.40;;;0.40;;
7116;SDS011;3600;48.568;7.870;2024-02-26T02:57:17;0.50;;;0.50;;
7116;SDS011;3600;48.568;7.870;2024-02-26T02:59:46;0.50;;;0.50;;
7116;SDS011;3600;48.568;7.870;2024-02-26T03:02:20;0.40;;;0.40;;
7116;SDS011;3600;48.568;7.870;2024-02-26T03:04:51;0.50;;;0.50;;
7116;SDS011;3600;48.568;7.870;2024-02-26T03:07:19;0.60;;;0.50;;
7116;SDS011;3600;48.568;7.870;2024-02-26T03:09:47;0.40;;;0.40;;
7116;SDS011;3600;48.568;7.870;2024-02-26T03:12:14;1.03;;;0.50;;
7116;SDS011;3600;48.568;7.870;2024-02-26T03:14:41;0.90;;;0.67;;
7116;SDS011;3600;48.568;7.870;2024-02-26T03:17:08;0.57;;;0.57;;
7116;SDS011;3600;48.568;7.870;2024-02-26T03:19:37;0.50;;;0.50;;
7116;SDS011;3600;48.568;7.870;2024-02-26T03:22:04;0.60;;;0.60;;
7116;SDS011;3600;48.568;7.870;2024-02-26T03:24:31;0.70;;;0.70;;
7116;SDS011;3600;48.568;7.870;2024-02-26T03:26:58;1.42;;;1.33;;
7116;SDS011;3600;48.568;7.870;2024-02-26T03:29:25;0.83;;;0.83;;
7116;SDS011;3600;48.568;7.870;2024-02-26T03:31:52;0.90;;;0.80;;
7116;SDS011;3600;48.568;7.870;2024-02-26T03:34:19;1.20;;;0.80;;
7116;SDS011;3600;48.568;7.870;2024-02-26T03:36:47;0.83;;;0.83;;
7116;SDS011;3600;48.568;7.870;2024-02-26T03:39:14;0.63;;;0.63;;
7116;SDS011;3600;48.568;7.870;2024-02-26T03:41:42;1.47;;;0.70;;
7116;SDS011;3600;48.568;7.870;2024-02-26T03:44:09;0.97;;;0.87;;
7116;SDS011;3600;48.568;7.870;2024-02-26T03:46:36;0.93;;;0.87;;
7116;SDS011;3600;48.568;7.870;2024-02-26T03:49:03;0.97;;;0.60;;
7116;SDS011;3600;48.568;7.870;2024-02-26T03:51:32;0.70;;;0.70;;
7116;SDS011;3600;48.568;7.870;2024-02-26T03:53:59;1.50;;;0.90;;
7116;SDS011;3600;48.568;7.870;2024-02-26T03:56:28;0.70;;;0.70;;
7116;SDS011;3600;48.568;7.870;2024-02-26T03:58:55;0.50;;;0.50;;
7116;SDS011;3600;48.568;7.870;2024-02-26T04:01:22;0.87;;;0.87;;
7116;SDS011;3600;48.568;7.870;2024-02-26T04:03:49;1.83;;;1.00;;
7116;SDS011;3600;48.568;7.870;2024-02-26T04:06:16;1.07;;;1.00;;
7116;SDS011;3600;48.568;7.870;2024-02-26T04:08:47;0.67;;;0.67;;
7116;SDS011;3600;48.568;7.870;2024-02-26T04:11:15;0.80;;;0.80;;
7116;SDS011;3600;48.568;7.870;2024-02-26T04:13:44;1.17;;;0.87;;
7116;SDS011;3600;48.568;7.870;2024-02-26T04:16:17;1.10;;;1.00;;
7116;SDS011;3600;48.568;7.870;2024-02-26T04:18:44;0.80;;;0.80;;
7116;SDS011;3600;48.568;7.870;2024-02-26T04:21:11;0.60;;;0.60;;
7116;SDS011;3600;48.568;7.870;2024-02-26T04:23:38;0.60;;;0.60;;
7116;SDS011;3600;48.568;7.870;2024-02-26T04:26:05;1.27;;;0.80;;
7116;SDS011;3600;48.568;7.870;2024-02-26T04:28:38;0.80;;;0.80;;
7116;SDS011;3600;48.568;7.870;2024-02-26T04:31:05;0.93;;;0.90;;
7116;SDS011;3600;48.568;7.870;2024-02-26T04:33:33;0.70;;;0.70;;
7116;SDS011;3600;48.568;7.870;2024-02-26T04:36:01;0.85;;;0.70;;
7116;SDS011;3600;48.568;7.870;2024-02-26T04:38:29;0.80;;;0.80;;
7116;SDS011;3600;48.568;7.870;2024-02-26T04:40:56;1.23;;;1.10;;
7116;SDS011;3600;48.568;7.870;2024-02-26T04:43:23;1.25;;;0.82;;
7116;SDS011;3600;48.568;7.870;2024-02-26T04:45:50;1.73;;;0.88;;
7116;SDS011;3600;48.568;7.870;2024-02-26T04:48:17;0.83;;;0.83;;
7116;SDS011;3600;48.568;7.870;2024-02-26T04:50:44;1.02;;;1.02;;
7116;SDS011;3600;48.568;7.870;2024-02-26T04:53:11;0.93;;;0.93;;
7116;SDS011;3600;48.568;7.870;2024-02-26T04:55:38;1.37;;;1.27;;
7116;SDS011;3600;48.568;7.870;2024-02-26T04:58:05;1.20;;;1.20;;
7116;SDS011;3600;48.568;7.870;2024-02-26T05:00:32;1.13;;;1.13;;
7116;SDS011;3600;48.568;7.870;2024-02-26T05:02:59;0.90;;;0.90;;
7116;SDS011;3600;48.568;7.870;2024-02-26T05:05:26;2.00;;;0.97;;
7116;SDS011;3600;48.568;7.870;2024-02-26T05:07:53;0.90;;;0.90;;
7116;SDS011;3600;48.568;7.870;2024-02-26T05:10:20;1.13;;;1.02;;
7116;SDS011;3600;48.568;7.870;2024-02-26T05:12:46;1.57;;;1.47;;
7116;SDS011;3600;48.568;7.870;2024-02-26T05:15:14;2.80;;;2.60;;
7116;SDS011;3600;48.568;7.870;2024-02-26T05:17:45;2.42;;;2.22;;
7116;SDS011;3600;48.568;7.870;2024-02-26T05:20:12;2.53;;;1.33;;
7116;SDS011;3600;48.568;7.870;2024-02-26T05:22:39;1.50;;;1.40;;
7116;SDS011;3600;48.568;7.870;2024-02-26T05:25:06;1.10;;;1.10;;
7116;SDS011;3600;48.568;7.870;2024-02-26T05:27:33;1.33;;;1.23;;
7116;SDS011;3600;48.568;7.870;2024-02-26T05:30:00;1.63;;;1.53;;
7116;SDS011;3600;48.568;7.870;2024-02-26T05:32:27;1.93;;;1.30;;
7116;SDS011;3600;48.568;7.870;2024-02-26T05:34:54;3.40;;;3.10;;
7116;SDS011;3600;48.568;7.870;2024-02-26T05:37:21;3.57;;;3.30;;
7116;SDS011;3600;48.568;7.870;2024-02-26T05:39:49;3.97;;;3.67;;
7116;SDS011;3600;48.568;7.870;2024-02-26T05:42:16;3.20;;;3.00;;
7116;SDS011;3600;48.568;7.870;2024-02-26T05:44:43;2.67;;;2.47;;
7116;SDS011;3600;48.568;7.870;2024-02-26T05:47:09;3.10;;;2.80;;
7116;SDS011;3600;48.568;7.870;2024-02-26T05:49:36;4.37;;;2.90;;
7116;SDS011;3600;48.568;7.870;2024-02-26T05:52:04;5.50;;;3.40;;
7116;SDS011;3600;48.568;7.870;2024-02-26T05:54:31;6.20;;;5.60;;
7116;SDS011;3600;48.568;7.870;2024-02-26T05:56:58;13.40;;;11.20;;
7116;SDS011;3600;48.568;7.870;2024-02-26T05:59:25;10.50;;;8.88;;
7116;SDS011;3600;48.568;7.870;2024-02-26T06:01:52;11.93;;;9.67;;
7116;SDS011;3600;48.568;7.870;2024-02-26T06:04:19;9.57;;;8.40;;
7116;SDS011;3600;48.568;7.870;2024-02-26T06:06:46;6.47;;;5.87;;
7116;SDS011;3600;48.568;7.870;2024-02-26T06:09:13;4.97;;;4.37;;
7116;SDS011;3600;48.568;7.870;2024-02-26T06:11:41;4.20;;;3.83;;
7116;SDS011;3600;48.568;7.870;2024-02-26T06:14:08;3.83;;;3.53;;
7116;SDS011;3600;48.568;7.870;2024-02-26T06:16:36;2.60;;;2.40;;
7116;SDS011;3600;48.568;7.870;2024-02-26T06:19:03;3.17;;;2.58;;
7116;SDS011;3600;48.568;7.870;2024-02-26T06:21:30;2.70;;;2.50;;
7116;SDS011;3600;48.568;7.870;2024-02-26T06:23:57;2.23;;;2.10;;
7116;SDS011;3600;48.568;7.870;2024-02-26T06:26:25;2.60;;;2.00;;
7116;SDS011;3600;48.568;7.870;2024-02-26T06:28:55;1.70;;;1.50;;
7116;SDS011;3600;48.568;7.870;2024-02-26T06:31:22;2.00;;;1.87;;
7116;SDS011;3600;48.568;7.870;2024-02-26T06:33:49;1.97;;;1.77;;
7116;SDS011;3600;48.568;7.870;2024-02-26T06:36:17;1.30;;;1.20;;
7116;SDS011;3600;48.568;7.870;2024-02-26T06:38:44;1.80;;;1.70;;
7116;SDS011;3600;48.568;7.870;2024-02-26T06:41:11;2.03;;;1.83;;
7116;SDS011;3600;48.568;7.870;2024-02-26T06:43:37;1.80;;;1.70;;
7116;SDS011;3600;48.568;7.870;2024-02-26T06:46:05;1.87;;;1.63;;
7116;SDS011;3600;48.568;7.870;2024-02-26T06:48:33;2.87;;;1.50;;
7116;SDS011;3600;48.568;7.870;2024-02-26T06:51:00;2.77;;;1.17;;
7116;SDS011;3600;48.568;7.870;2024-02-26T06:53:27;2.13;;;1.80;;
7116;SDS011;3600;48.568;7.870;2024-02-26T06:55:54;3.17;;;2.40;;
7116;SDS011;3600;48.568;7.870;2024-02-26T06:58:21;2.50;;;2.30;;
7116;SDS011;3600;48.568;7.870;2024-02-26T07:00:47;2.07;;;1.97;;
7116;SDS011;3600;48.568;7.870;2024-02-26T07:03:15;4.50;;;2.73;;
7116;SDS011;3600;48.568;7.870;2024-02-26T07:05:44;2.40;;;2.20;;
7116;SDS011;3600;48.568;7.870;2024-02-26T07:08:12;1.70;;;1.60;;
7116;SDS011;3600;48.568;7.870;2024-02-26T07:10:39;1.88;;;1.77;;
7116;SDS011;3600;48.568;7.870;2024-02-26T07:13:06;1.43;;;1.30;;
7116;SDS011;3600;48.568;7.870;2024-02-26T07:15:33;2.27;;;1.30;;
7116;SDS011;3600;48.568;7.870;2024-02-26T07:18:00;1.70;;;1.60;;
7116;SDS011;3600;48.568;7.870;2024-02-26T07:20:30;1.70;;;1.60;;
7116;SDS011;3600;48.568;7.870;2024-02-26T07:22:58;1.90;;;1.40;;
7116;SDS011;3600;48.568;7.870;2024-02-26T07:25:25;3.00;;;2.80;;
7116;SDS011;3600;48.568;7.870;2024-02-26T07:27:51;6.27;;;5.30;;
7116;SDS011;3600;48.568;7.870;2024-02-26T07:34:05;4.00;;;3.70;;
7116;SDS011;3600;48.568;7.870;2024-02-26T07:36:32;3.40;;;2.23;;
7116;SDS011;3600;48.568;7.870;2024-02-26T07:38:59;2.47;;;2.27;;
7116;SDS011;3600;48.568;7.870;2024-02-26T07:41:27;2.30;;;2.10;;
7116;SDS011;3600;48.568;7.870;2024-02-26T07:43:54;2.30;;;2.20;;
7116;SDS011;3600;48.568;7.870;2024-02-26T07:46:21;3.00;;;1.90;;
7116;SDS011;3600;48.568;7.870;2024-02-26T07:48:48;4.63;;;2.20;;
7116;SDS011;3600;48.568;7.870;2024-02-26T07:51:16;2.20;;;2.03;;
7116;SDS011;3600;48.568;7.870;2024-02-26T07:53:43;1.80;;;1.70;;
7116;SDS011;3600;48.568;7.870;2024-02-26T07:56:11;2.83;;;2.63;;
7116;SDS011;3600;48.568;7.870;2024-02-26T07:58:37;3.37;;;2.90;;
7116;SDS011;3600;48.568;7.870;2024-02-26T08:01:04;9.83;;;8.77;;
7116;SDS011;3600;48.568;7.870;2024-02-26T08:03:31;3.00;;;2.70;;
7116;SDS011;3600;48.568;7.870;2024-02-26T08:05:59;2.67;;;2.47;;
7116;SDS011;3600;48.568;7.870;2024-02-26T08:08:26;8.13;;;3.03;;
7116;SDS011;3600;48.568;7.870;2024-02-26T08:10:53;6.30;;;5.70;;
7116;SDS011;3600;48.568;7.870;2024-02-26T08:13:20;4.60;;;4.13;;
7116;SDS011;3600;48.568;7.870;2024-02-26T08:15:47;4.80;;;4.40;;
7116;SDS011;3600;48.568;7.870;2024-02-26T08:18:14;5.70;;;4.30;;
7116;SDS011;3600;48.568;7.870;2024-02-26T08:20:42;3.90;;;3.50;;
7116;SDS011;3600;48.568;7.870;2024-02-26T08:23:12;2.60;;;2.40;;
7116;SDS011;3600;48.568;7.870;2024-02-26T08:25:39;7.03;;;2.90;;
7116;SDS011;3600;48.568;7.870;2024-02-26T08:28:06;3.83;;;3.37;;
7116;SDS011;3600;48.568;7.870;2024-02-26T08:30:33;4.07;;;3.20;;
7116;SDS011;3600;48.568;7.870;2024-02-26T08:33:00;2.60;;;2.17;;
7116;SDS011;3600;48.568;7.870;2024-02-26T08:35:27;11.23;;;6.97;;
7116;SDS011;3600;48.568;7.870;2024-02-26T08:37:54;16.70;;;11.63;;
7116;SDS011;3600;48.568;7.870;2024-02-26T08:40:22;5.23;;;4.33;;
7116;SDS011;3600;48.568;7.870;2024-02-26T08:42:49;4.53;;;3.87;;
7116;SDS011;3600;48.568;7.870;2024-02-26T08:45:16;5.00;;;4.53;;
7116;SDS011;3600;48.568;7.870;2024-02-26T08:47:44;3.20;;;2.90;;
7116;SDS011;3600;48.568;7.870;2024-02-26T08:50:13;3.00;;;2.70;;
7116;SDS011;3600;48.568;7.870;2024-02-26T08:52:41;2.73;;;2.47;;
7116;SDS011;3600;48.568;7.870;2024-02-26T08:55:08;3.20;;;2.77;;
7116;SDS011;3600;48.568;7.870;2024-02-26T08:57:35;3.00;;;2.70;;
7116;SDS011;3600;48.568;7.870;2024-02-26T09:00:02;3.50;;;3.30;;
7116;SDS011;3600;48.568;7.870;2024-02-26T09:02:29;4.97;;;2.80;;
7116;SDS011;3600;48.568;7.870;2024-02-26T09:04:56;3.08;;;2.88;;
7116;SDS011;3600;48.568;7.870;2024-02-26T09:07:24;2.70;;;2.50;;
7116;SDS011;3600;48.568;7.870;2024-02-26T09:09:51;3.88;;;2.40;;
7116;SDS011;3600;48.568;7.870;2024-02-26T09:12:19;3.22;;;2.67;;
7116;SDS011;3600;48.568;7.870;2024-02-26T09:14:48;2.97;;;2.78;;
7116;SDS011;3600;48.568;7.870;2024-02-26T09:17:15;3.05;;;2.85;;
7116;SDS011;3600;48.568;7.870;2024-02-26T09:19:42;3.50;;;2.83;;
7116;SDS011;3600;48.568;7.870;2024-02-26T09:22:13;2.97;;;2.78;;
7116;SDS011;3600;48.568;7.870;2024-02-26T09:24:44;2.58;;;2.38;;
7116;SDS011;3600;48.568;7.870;2024-02-26T09:27:11;2.50;;;2.30;;
7116;SDS011;3600;48.568;7.870;2024-02-26T09:29:39;3.05;;;2.20;;
7116;SDS011;3600;48.568;7.870;2024-02-26T09:32:06;2.00;;;1.90;;
7116;SDS011;3600;48.568;7.870;2024-02-26T09:34:33;3.45;;;2.42;;
7116;SDS011;3600;48.568;7.870;2024-02-26T09:37:00;3.10;;;2.80;;
7116;SDS011;3600;48.568;7.870;2024-02-26T09:39:41;4.82;;;4.03;;
7116;SDS011;3600;48.568;7.870;2024-02-26T09:42:09;6.93;;;5.20;;
7116;SDS011;3600;48.568;7.870;2024-02-26T09:44:40;5.68;;;4.40;;
7116;SDS011;3600;48.568;7.870;2024-02-26T09:47:09;5.07;;;3.85;;
7116;SDS011;3600;48.568;7.870;2024-02-26T09:49:38;6.38;;;4.40;;
7116;SDS011;3600;48.568;7.870;2024-02-26T09:52:05;5.45;;;4.40;;
7116;SDS011;3600;48.568;7.870;2024-02-26T09:54:34;4.05;;;3.35;;
7116;SDS011;3600;48.568;7.870;2024-02-26T09:57:03;3.40;;;2.78;;
7116;SDS011;3600;48.568;7.870;2024-02-26T09:59:36;2.38;;;2.22;;
7116;SDS011;3600;48.568;7.870;2024-02-26T10:02:11;2.30;;;2.13;;
7116;SDS011;3600;48.568;7.870;2024-02-26T10:04:40;2.92;;;2.70;;
7116;SDS011;3600;48.568;7.870;2024-02-26T10:07:12;3.50;;;2.83;;
7116;SDS011;3600;48.568;7.870;2024-02-26T10:09:40;2.85;;;2.58;;
7116;SDS011;3600;48.568;7.870;2024-02-26T10:12:08;2.03;;;1.90;;
7116;SDS011;3600;48.568;7.870;2024-02-26T10:14:57;4.65;;;4.03;;
7116;SDS011;3600;48.568;7.870;2024-02-26T10:17:24;3.55;;;3.25;;
7116;SDS011;3600;48.568;7.870;2024-02-26T10:19:52;2.72;;;2.53;;
7116;SDS011;3600;48.568;7.870;2024-02-26T10:22:22;2.08;;;1.98;;
7116;SDS011;3600;48.568;7.870;2024-02-26T10:24:49;2.90;;;2.70;;
7116;SDS011;3600;48.568;7.870;2024-02-26T10:27:16;8.27;;;4.80;;
7116;SDS011;3600;48.568;7.870;2024-02-26T10:29:45;2.78;;;2.50;;
7116;SDS011;3600;48.568;7.870;2024-02-26T10:32:13;2.05;;;1.95;;
7116;SDS011;3600;48.568;7.870;2024-02-26T10:34:40;2.60;;;2.40;;
7116;SDS011;3600;48.568;7.870;2024-02-26T10:37:09;2.40;;;2.20;;
7116;SDS011;3600;48.568;7.870;2024-02-26T10:39:37;3.22;;;2.92;;
7116;SDS011;3600;48.568;7.870;2024-02-26T10:42:04;2.95;;;2.65;;
7116;SDS011;3600;48.568;7.870;2024-02-26T10:44:36;2.42;;;2.22;;
7116;SDS011;3600;48.568;7.870;2024-02-26T10:47:03;2.40;;;2.20;;
7116;SDS011;3600;48.568;7.870;2024-02-26T10:49:30;3.05;;;2.78;;
7116;SDS011;3600;48.568;7.870;2024-02-26T10:52:01;4.88;;;4.00;;
7116;SDS011;3600;48.568;7.870;2024-02-26T10:54:30;3.45;;;2.88;;
7116;SDS011;3600;48.568;7.870;2024-02-26T10:57:00;4.47;;;2.53;;
7116;SDS011;3600;48.568;7.870;2024-02-26T10:59:28;2.80;;;2.60;;
7116;SDS011;3600;48.568;7.870;2024-02-26T11:01:57;2.90;;;2.70;;
7116;SDS011;3600;48.568;7.870;2024-02-26T11:04:26;2.75;;;2.40;;
7116;SDS011;3600;48.568;7.870;2024-02-26T11:06:56;2.45;;;2.30;;
7116;SDS011;3600;48.568;7.870;2024-02-26T11:09:24;2.92;;;2.72;;
7116;SDS011;3600;48.568;7.870;2024-02-26T11:11:52;3.22;;;3.03;;
7116;SDS011;3600;48.568;7.870;2024-02-26T11:14:21;3.13;;;2.85;;
7116;SDS011;3600;48.568;7.870;2024-02-26T11:16:52;3.78;;;2.97;;
7116;SDS011;3600;48.568;7.870;2024-02-26T11:19:21;2.35;;;2.15;;
7116;SDS011;3600;48.568;7.870;2024-02-26T11:21:50;2.85;;;2.47;;
7116;SDS011;3600;48.568;7.870;2024-02-26T11:24:17;2.58;;;2.30;;
7116;SDS011;3600;48.568;7.870;2024-02-26T11:26:49;3.00;;;2.80;;
7116;SDS011;3600;48.568;7.870;2024-02-26T11:29:47;2.60;;;2.40;;
7116;SDS011;3600;48.568;7.870;2024-02-26T11:32:18;2.22;;;1.98;;
7116;SDS011;3600;48.568;7.870;2024-02-26T11:34:46;2.53;;;2.35;;
7116;SDS011;3600;48.568;7.870;2024-02-26T11:37:16;4.53;;;2.00;;
7116;SDS011;3600;48.568;7.870;2024-02-26T11:39:45;2.60;;;2.03;;
7116;SDS011;3600;48.568;7.870;2024-02-26T11:42:15;2.08;;;1.98;;
7116;SDS011;3600;48.568;7.870;2024-02-26T11:44:43;2.67;;;2.47;;
7116;SDS011;3600;48.568;7.870;2024-02-26T11:47:14;2.97;;;2.70;;
7116;SDS011;3600;48.568;7.870;2024-02-26T11:49:45;2.60;;;2.28;;
7116;SDS011;3600;48.568;7.870;2024-02-26T11:52:15;1.92;;;1.75;;
7116;SDS011;3600;48.568;7.870;2024-02-26T11:57:20;1.55;;;1.45;;
7116;SDS011;3600;48.568;7.870;2024-02-26T11:59:55;1.52;;;1.42;;
7116;SDS011;3600;48.568;7.870;2024-02-26T12:05:13;1.50;;;1.40;;
7116;SDS011;3600;48.568;7.870;2024-02-26T12:07:47;1.98;;;1.33;;
7116;SDS011;3600;48.568;7.870;2024-02-26T12:10:25;1.70;;;1.60;;
7116;SDS011;3600;48.568;7.870;2024-02-26T12:12:58;1.13;;;1.10;;
7116;SDS011;3600;48.568;7.870;2024-02-26T12:15:33;1.73;;;1.45;;
7116;SDS011;3600;48.568;7.870;2024-02-26T12:18:03;1.30;;;1.25;;
7116;SDS011;3600;48.568;7.870;2024-02-26T12:20:34;2.05;;;1.95;;
7116;SDS011;3600;48.568;7.870;2024-02-26T12:23:02;0.90;;;0.90;;
7116;SDS011;3600;48.568;7.870;2024-02-26T12:25:33;1.40;;;1.30;;
7116;SDS011;3600;48.568;7.870;2024-02-26T12:28:07;6.15;;;5.28;;
7116;SDS011;3600;48.568;7.870;2024-02-26T12:30:36;3.53;;;3.10;;
7116;SDS011;3600;48.568;7.870;2024-02-26T12:33:16;2.33;;;1.85;;
7116;SDS011;3600;48.568;7.870;2024-02-26T12:35:46;2.50;;;2.30;;
7116;SDS011;3600;48.568;7.870;2024-02-26T12:38:19;1.25;;;1.25;;
7116;SDS011;3600;48.568;7.870;2024-02-26T12:40:55;3.35;;;1.50;;
7116;SDS011;3600;48.568;7.870;2024-02-26T12:43:32;1.83;;;1.73;;
7116;SDS011;3600;48.568;7.870;2024-02-26T12:46:11;1.98;;;1.88;;
7116;SDS011;3600;48.568;7.870;2024-02-26T12:49:00;1.10;;;1.10;;
7116;SDS011;3600;48.568;7.870;2024-02-26T12:51:46;1.42;;;1.33;;
7116;SDS011;3600;48.568;7.870;2024-02-26T12:54:28;1.73;;;1.60;;
7116;SDS011;3600;48.568;7.870;2024-02-26T12:57:00;3.38;;;1.58;;
7116;SDS011;3600;48.568;7.870;2024-02-26T12:59:29;1.75;;;1.45;;
7116;SDS011;3600;48.568;7.870;2024-02-26T13:01:57;2.05;;;1.55;;
7116;SDS011;3600;48.568;7.870;2024-02-26T13:04:37;1.95;;;1.63;;
7116;SDS011;3600;48.568;7.870;2024-02-26T13:07:12;1.20;;;1.13;;
7116;SDS011;3600;48.568;7.870;2024-02-26T13:10:13;1.40;;;1.30;;
7116;SDS011;3600;48.568;7.870;2024-02-26T13:13:03;4.40;;;1.77;;
7116;SDS011;3600;48.568;7.870;2024-02-26T13:15:47;2.10;;;1.90;;
7116;SDS011;3600;48.568;7.870;2024-02-26T13:18:19;2.90;;;2.17;;
7116;SDS011;3600;48.568;7.870;2024-02-26T13:21:10;2.45;;;2.25;;
7116;SDS011;3600;48.568;7.870;2024-02-26T13:23:56;1.65;;;1.55;;
7116;SDS011;3600;48.568;7.870;2024-02-26T13:26:38;1.73;;;1.63;;
7116;SDS011;3600;48.568;7.870;2024-02-26T13:29:25;1.35;;;1.25;;
7116;SDS011;3600;48.568;7.870;2024-02-26T13:32:00;1.42;;;1.33;;
7116;SDS011;3600;48.568;7.870;2024-02-26T13:34:30;1.92;;;1.50;;
7116;SDS011;3600;48.568;7.870;2024-02-26T13:37:00;1.13;;;0.95;;
7116;SDS011;3600;48.568;7.870;2024-02-26T13:39:27;2.85;;;1.17;;
7116;SDS011;3600;48.568;7.870;2024-02-26T13:41:57;1.67;;;1.40;;
7116;SDS011;3600;48.568;7.870;2024-02-26T13:44:25;1.13;;;1.02;;
7116;SDS011;3600;48.568;7.870;2024-02-26T13:46:55;1.52;;;1.40;;
7116;SDS011;3600;48.568;7.870;2024-02-26T13:49:48;1.20;;;1.10;;
7116;SDS011;3600;48.568;7.870;2024-02-26T13:52:35;1.80;;;1.25;;
7116;SDS011;3600;48.568;7.870;2024-02-26T13:55:02;2.00;;;1.13;;
7116;SDS011;3600;48.568;7.870;2024-02-26T13:57:30;1.75;;;1.65;;
7116;SDS011;3600;48.568;7.870;2024-02-26T13:59:57;0.80;;;0.80;;
7116;SDS011;3600;48.568;7.870;2024-02-26T14:02:27;1.48;;;1.38;;
7116;SDS011;3600;48.568;7.870;2024-02-26T14:05:10;0.70;;;0.70;;
7116;SDS011;3600;48.568;7.870;2024-02-26T14:07:45;1.20;;;1.20;;
7116;SDS011;3600;48.568;7.870;2024-02-26T14:10:21;1.48;;;1.10;;
7116;SDS011;3600;48.568;7.870;2024-02-26T14:16:08;3.17;;;1.45;;
7116;SDS011;3600;48.568;7.870;2024-02-26T14:18:39;1.35;;;1.23;;
7116;SDS011;3600;48.568;7.870;2024-02-26T14:21:16;1.60;;;1.50;;
7116;SDS011;3600;48.568;7.870;2024-02-26T14:23:44;2.25;;;1.17;;
7116;SDS011;3600;48.568;7.870;2024-02-26T14:26:11;1.45;;;1.35;;
7116;SDS011;3600;48.568;7.870;2024-02-26T14:28:38;2.67;;;1.40;;
7116;SDS011;3600;48.568;7.870;2024-02-26T14:31:09;1.20;;;0.85;;
7116;SDS011;3600;48.568;7.870;2024-02-26T14:33:37;0.88;;;0.88;;
7116;SDS011;3600;48.568;7.870;2024-02-26T14:36:07;2.03;;;0.98;;
7116;SDS011;3600;48.568;7.870;2024-02-26T14:38:34;1.42;;;1.27;;
7116;SDS011;3600;48.568;7.870;2024-02-26T14:41:01;0.70;;;0.70;;
7116;SDS011;3600;48.568;7.870;2024-02-26T14:43:29;1.30;;;1.02;;
7116;SDS011;3600;48.568;7.870;2024-02-26T14:45:58;1.58;;;1.17;;
7116;SDS011;3600;48.568;7.870;2024-02-26T14:48:25;1.40;;;1.20;;
7116;SDS011;3600;48.568;7.870;2024-02-26T14:50:53;1.55;;;1.17;;
7116;SDS011;3600;48.568;7.870;2024-02-26T14:53:20;1.33;;;1.20;;
7116;SDS011;3600;48.568;7.870;2024-02-26T14:55:47;1.15;;;1.15;;
7116;SDS011;3600;48.568;7.870;2024-02-26T14:58:16;1.13;;;1.13;;
7116;SDS011;3600;48.568;7.870;2024-02-26T15:00:52;1.33;;;1.17;;
7116;SDS011;3600;48.568;7.870;2024-02-26T15:03:19;1.42;;;1.00;;
7116;SDS011;3600;48.568;7.870;2024-02-26T15:05:46;1.27;;;1.17;;
7116;SDS011;3600;48.568;7.870;2024-02-26T15:08:13;1.10;;;1.00;;
7116;SDS011;3600;48.568;7.870;2024-02-26T15:10:43;1.30;;;1.20;;
7116;SDS011;3600;48.568;7.870;2024-02-26T15:13:15;1.35;;;1.25;;
7116;SDS011;3600;48.568;7.870;2024-02-26T15:15:44;1.27;;;1.17;;
7116;SDS011;3600;48.568;7.870;2024-02-26T15:18:12;1.52;;;1.10;;
7116;SDS011;3600;48.568;7.870;2024-02-26T15:20:42;1.23;;;1.13;;
7116;SDS011;3600;48.568;7.870;2024-02-26T15:23:10;1.30;;;1.13;;
7116;SDS011;3600;48.568;7.870;2024-02-26T15:33:22;1.13;;;1.02;;
7116;SDS011;3600;48.568;7.870;2024-02-26T15:35:51;1.60;;;1.50;;
7116;SDS011;3600;48.568;7.870;2024-02-26T15:38:18;0.90;;;0.90;;
7116;SDS011;3600;48.568;7.870;2024-02-26T15:40:45;1.80;;;1.13;;
7116;SDS011;3600;48.568;7.870;2024-02-26T15:43:13;1.35;;;1.25;;
7116;SDS011;3600;48.568;7.870;2024-02-26T15:45:41;1.60;;;1.45;;
7116;SDS011;3600;48.568;7.870;2024-02-26T15:48:12;2.50;;;2.35;;